Terminal Aerodrome Forecast
Issued by NWS

Home | Current Version | Previous Version | Text Only | Print | Product List | Glossary On
Versions: 1 2 3 4 5 6 7 8 9 10 11 12 13 14 15 16 17 18 19 20 21 22 23 24 25 26 27 28 29 30
036
FTUS43 KDVN 160520
TAFCID
TAF
KCID 160520Z 1606/1706 11005KT 6SM -FZRAPL BR BKN025
     FM160730 10006KT 4SM -FZRAPL BR OVC012
     FM160900 09008KT 3SM -FZRA BR OVC007
     FM161600 09009KT 2SM RA BR OVC005
     FM170300 08004KT 1SM -DZ BR OVC003=

USA.gov is the U.S. government's official web portal to all federal, state and local government web resources and services.